Latest Weather Observations for Wulungurru (Kintore)

IDD60801

Issued at 6:01 pm CST Saturday 10 December 2016 (issued every 30 minutes, with the page automatically refreshed every 10 minutes)

About weather observations | Map of weather stations | Latest weather observations for NT | Other Formats
Station Details ID: 015664 Name: WALUNGURRU AIRPORT Lat: -23.27 Lon: 129.38 Height: 454.3 m
Data from the previous 72 hours. | See also: Recent months at Wulungurru (Kintore)
Date/Time
CST
Temp
°C
App
Temp
°C
Dew
Point
°C
Rel
Hum
%
Delta-T
°C
Wind Press
QNH
hPa
Press
MSL
hPa
Rain since
9am
mm
Dir  Spd
km/h
Gust
km/h
Spd
kts
Gust
kts
10/06:00pm 35.1 31.8 2.6 13 17.1 E 9 17 5 9 1012.4 1009.1 0.0
10/05:30pm 35.5 30.4 2.9 13 17.3 S 19 24 10 13 1012.3 - 0.0
10/05:00pm 35.4 32.2 2.8 13 17.2 S 9 15 5 8 1012.4 - 0.0
10/04:30pm 35.6 31.1 4.0 14 17.0 SE 17 26 9 14 1012.6 - 0.0
10/04:00pm 35.8 33.2 4.2 14 17.1 S 7 20 4 11 1012.9 - 0.0
10/03:30pm 36.1 32.6 3.3 13 17.5 ESE 11 19 6 10 1013.2 - 0.0
10/03:00pm 35.8 32.2 5.1 15 16.8 E 13 24 7 13 1013.6 1010.4 0.0
10/02:30pm 34.6 31.8 5.1 16 16.1 ENE 9 15 5 8 1014.0 - 0.0
10/02:00pm 35.1 31.4 4.6 15 16.5 SSE 13 26 7 14 1014.6 - 0.0
10/01:30pm 34.9 31.2 6.2 17 15.9 SE 15 26 8 14 1015.0 - 0.0
10/01:00pm 33.7 31.3 6.9 19 15.0 ENE 9 13 5 7 1015.4 - 0.0
10/12:30pm 33.4 30.4 5.9 18 15.1 ENE 11 20 6 11 1015.9 - 0.0
10/12:00pm 33.7 29.6 6.1 18 15.2 E 17 24 9 13 1016.6 1013.4 0.0
10/11:30am 32.8 28.9 5.4 18 14.9 ESE 15 20 8 11 1017.0 - 0.0
10/11:00am 31.5 27.2 5.1 19 14.2 ENE 17 32 9 17 1017.4 - 0.0
10/10:30am 31.0 25.6 4.7 19 14.0 ENE 22 32 12 17 1017.5 - 0.0
10/10:00am 29.6 24.2 4.3 20 13.3 E 22 32 12 17 1017.8 - 0.0
10/09:30am 29.4 23.7 4.8 21 13.0 E 24 33 13 18 1017.9 - 0.0
10/09:00am 28.3 21.9 5.2 23 12.2 ENE 28 37 15 20 1017.8 1014.6 0.0
10/08:30am 27.2 20.4 4.9 24 11.6 E 30 39 16 21 1017.7 - 0.0
10/08:00am 26.4 20.9 5.9 27 10.8 E 24 35 13 19 1017.6 - 0.0
10/07:30am 26.2 20.7 5.7 27 10.8 E 24 33 13 18 1017.4 - 0.0
10/07:00am 25.3 20.7 6.5 30 10.0 E 20 30 11 16 1017.0 - 0.0
10/06:30am 24.5 19.9 6.7 32 9.4 E 20 28 11 15 1016.6 - 0.0
10/06:00am 24.5 19.6 6.7 32 9.4 E 22 30 12 16 1016.1 1012.9 0.0
10/05:00am 24.9 20.4 7.1 32 9.5 E 20 30 11 16 1015.3 - 0.0
10/04:30am 24.7 20.5 7.4 33 9.3 ESE 19 24 10 13 1015.2 - 0.0
10/04:00am 25.3 20.3 7.9 33 9.5 E 24 33 13 18 1014.6 - 0.0
10/03:30am 25.3 20.1 7.4 32 9.7 E 24 33 13 18 1014.3 - 0.0
10/03:00am 25.8 20.3 7.4 31 9.9 E 26 33 14 18 1014.3 1011.0 0.0
10/02:30am 26.1 20.1 7.2 30 10.2 E 28 39 15 21 1014.3 - 0.0
10/02:00am 26.4 20.9 7.4 30 10.3 E 26 39 14 21 1014.5 - 0.0
10/01:30am 27.0 20.7 7.5 29 10.6 ESE 30 48 16 26 1014.0 - 0.0
10/01:29am 27.0 20.7 7.5 29 10.6 ESE 30 48 16 26 1014.0 - 0.0
10/01:00am 27.0 21.0 6.9 28 10.8 ESE 28 41 15 22 1014.3 - 0.0
10/12:30am 27.2 21.5 6.6 27 11.1 ESE 26 39 14 21 1014.6 - 0.0
10/12:00am 27.4 21.6 6.2 26 11.3 ESE 26 35 14 19 1014.7 1011.5 0.0
 
Date/Time
CST
Temp
°C
App
Temp
°C
Dew
Point
°C
Rel
Hum
%
Delta-T
°C
Wind Press
QNH
hPa
Press
MSL
hPa
Rain since
9am
mm
Dir  Spd
km/h
Gust
km/h
Spd
kts
Gust
kts
09/11:30pm 27.7 21.6 6.5 26 11.4 SE 28 35 15 19 1014.6 - 0.0
09/11:00pm 28.2 21.7 6.3 25 11.8 SE 30 37 16 20 1014.6 - 0.0
09/10:30pm 28.7 21.9 6.7 25 11.9 SE 32 43 17 23 1014.5 - 0.0
09/10:00pm 29.3 22.4 7.2 25 12.1 SE 33 43 18 23 1014.3 - 0.0
09/09:30pm 30.1 25.4 9.1 27 11.9 SE 24 41 13 22 1013.9 - 0.0
09/09:00pm 31.3 26.8 10.1 27 12.3 ESE 24 35 13 19 1013.5 1010.3 0.0
09/08:30pm 31.5 28.9 10.8 28 12.2 E 15 19 8 10 1013.1 - 0.0
09/08:00pm 31.7 29.6 11.0 28 12.2 E 13 17 7 9 1012.9 - 0.0
09/07:30pm 32.5 29.5 10.5 26 12.9 E 17 22 9 12 1012.5 - 0.0
09/07:00pm 32.9 30.2 10.3 25 13.3 E 15 20 8 11 1012.1 - 0.0
09/06:30pm 34.1 31.7 10.0 23 14.1 E 13 19 7 10 1011.9 - 0.0
09/06:00pm 33.9 32.2 9.9 23 14.1 E 9 26 5 14 1011.6 1008.4 0.0
09/05:30pm 34.4 31.9 10.9 24 14.0 ESE 15 22 8 12 1011.5 - 0.0
09/05:00pm 34.6 31.7 11.1 24 14.1 E 17 30 9 16 1011.4 - 0.0
09/04:30pm 34.5 32.2 11.6 25 13.8 E 15 24 8 13 1011.6 - 0.0
09/04:00pm 35.3 33.7 11.7 24 14.3 E 11 19 6 10 1012.1 - 0.0
09/03:30pm 35.1 33.9 12.7 26 13.7 NE 11 20 6 11 1012.4 - 0.0
09/03:00pm 34.3 33.2 13.2 28 13.0 ENE 11 19 6 10 1012.5 1009.3 0.0
09/02:30pm 33.8 32.2 12.7 27 12.9 ENE 13 26 7 14 1013.0 - 0.0
09/02:00pm 33.4 31.1 12.9 28 12.5 E 17 24 9 13 1013.3 - 0.0
09/01:30pm 33.6 31.3 13.1 29 12.6 E 17 30 9 16 1013.9 - 0.0
09/01:00pm 33.2 29.9 11.7 27 12.9 E 20 33 11 18 1014.5 - 0.0
09/12:30pm 32.5 29.1 11.1 27 12.7 ENE 20 35 11 19 1014.7 - 0.0
09/12:00pm 32.0 27.8 11.2 28 12.3 ENE 24 35 13 19 1015.1 1011.9 0.0
09/11:30am 30.8 26.5 10.7 29 11.8 E 24 37 13 20 1015.5 - 0.0
09/11:00am 31.0 27.0 11.9 31 11.4 E 24 33 13 18 1015.7 - 0.0
09/10:30am 29.3 24.9 11.8 34 10.3 ENE 26 37 14 20 1015.7 - 0.0
09/10:00am 28.6 22.8 10.8 33 10.3 E 32 43 17 23 1015.8 - 0.0
09/09:30am 28.1 22.0 10.3 33 10.2 E 33 48 18 26 1015.8 - 0.0
09/09:00am 27.4 21.3 9.7 33 10.0 E 32 41 17 22 1015.9 1012.7 0.0
09/08:30am 26.5 20.0 8.9 33 9.8 E 33 44 18 24 1015.5 - 0.0
09/08:00am 25.8 19.3 8.3 33 9.6 E 32 48 17 26 1015.5 - 0.0
09/07:30am 24.9 17.7 7.5 33 9.4 ESE 35 54 19 29 1015.0 - 0.0
09/07:08am 24.4 18.7 8.4 36 8.7 ESE 28 46 15 25 1015.0 - 0.0
09/07:00am 24.1 18.4 8.5 37 8.5 ESE 28 43 15 23 1014.7 - 0.0
09/06:30am 23.4 18.1 9.8 42 7.6 ESE 28 41 15 22 1014.0 - 0.0
09/06:00am 23.3 18.2 9.3 41 7.7 ESE 26 37 14 20 1013.8 1010.6 0.0
09/05:30am 23.3 18.5 9.0 40 7.8 ESE 24 35 13 19 1013.4 - 0.0
09/05:00am 23.8 18.9 8.6 38 8.3 ESE 24 33 13 18 1013.2 - 0.0
09/04:30am 24.3 19.9 9.1 38 8.4 ESE 22 32 12 17 1013.0 - 0.0
09/04:00am 24.9 19.8 9.2 37 8.7 ESE 26 35 14 19 1012.6 - 0.0
09/03:30am 25.5 19.7 9.3 36 9.0 ESE 30 41 16 22 1012.5 - 0.0
09/03:00am 25.7 20.7 9.5 36 9.1 ESE 26 39 14 21 1012.4 1009.1 0.0
09/02:30am 25.7 21.5 9.9 37 8.9 ESE 22 30 12 16 1012.6 - 0.0
09/02:00am 26.2 22.8 12.6 43 8.0 ESE 22 32 12 17 1012.9 - 0.0
09/01:30am 26.3 25.3 18.9 63 4.8 ESE 22 32 12 17 1012.9 - 0.0
09/01:00am 26.9 26.0 19.0 62 5.2 ESE 22 32 12 17 1013.4 - 0.0
09/12:30am 27.2 25.4 18.8 60 5.5 E 26 35 14 19 1013.4 - 0.0
09/12:00am 27.5 26.2 18.2 57 6.0 ESE 22 30 12 16 1013.6 1010.4 0.0
 
Date/Time
CST
Temp
°C
App
Temp
°C
Dew
Point
°C
Rel
Hum
%
Delta-T
°C
Wind Press
QNH
hPa
Press
MSL
hPa
Rain since
9am
mm
Dir  Spd
km/h
Gust
km/h
Spd
kts
Gust
kts
08/11:30pm 28.1 26.3 17.9 54 6.6 ESE 24 32 13 17 1013.5 - 0.0
08/11:00pm 28.6 26.9 18.1 53 6.8 ESE 24 33 13 18 1013.6 - 0.0
08/10:30pm 28.8 28.1 18.6 54 6.7 ESE 20 28 11 15 1013.6 - 0.0
08/10:00pm 28.6 28.5 17.8 52 7.0 E 15 20 8 11 1013.2 - 0.0
08/09:30pm 28.9 28.6 17.4 49 7.4 ENE 15 20 8 11 1012.7 - 0.0
08/09:00pm 29.4 28.3 17.2 47 7.8 ENE 19 24 10 13 1012.5 1009.3 0.0
08/08:30pm 29.6 30.0 18.1 50 7.5 NE 13 17 7 9 1012.0 - 0.0
08/08:00pm 30.0 29.9 17.8 48 7.9 NE 15 19 8 10 1011.4 - 0.0
08/07:30pm 30.7 29.8 17.7 45 8.4 ENE 19 22 10 12 1010.9 - 0.0
08/07:00pm 31.6 30.4 17.5 43 9.2 ENE 20 28 11 15 1010.5 - 0.0
08/06:30pm 33.2 32.2 15.7 35 11.1 ESE 15 20 8 11 1010.3 - 0.0
08/06:00pm 33.7 32.0 15.7 34 11.5 ESE 19 26 10 14 1010.0 1006.7 0.0
08/05:30pm 34.7 32.6 15.1 31 12.4 ESE 20 28 11 15 1009.9 - 0.0
08/05:00pm 34.7 32.8 15.1 31 12.4 SE 19 28 10 15 1009.9 - 0.0
08/04:30pm 35.2 33.6 16.0 31 12.3 SE 19 24 10 13 1010.1 - 0.0
08/04:00pm 34.6 33.4 16.0 33 11.9 SSE 17 30 9 16 1010.3 - 0.0
08/03:30pm 34.8 33.0 16.1 32 12.0 ESE 20 33 11 18 1010.5 - 0.0
08/03:00pm 34.1 32.3 16.0 34 11.6 SE 20 30 11 16 1010.7 1007.5 0.0
08/02:30pm 33.8 32.1 16.2 35 11.3 ESE 20 30 11 16 1010.9 - 0.0
08/02:00pm 33.3 31.8 16.2 36 11.0 ESE 19 30 10 16 1011.2 - 0.0
08/01:30pm 33.1 31.8 16.9 38 10.5 SE 19 30 10 16 1011.4 - 0.0
08/01:00pm 33.5 32.2 16.8 36 10.8 ESE 19 28 10 15 1011.9 - 0.0
08/12:30pm 33.0 31.4 16.4 37 10.7 SE 20 32 11 17 1012.3 - 0.0
08/12:00pm 32.2 29.6 16.9 40 9.9 SSE 26 33 14 18 1012.7 1009.5 0.0
08/11:30am 32.1 30.2 17.6 42 9.4 ESE 24 32 13 17 1013.0 - 0.0
08/11:00am 30.1 27.4 17.5 46 8.1 SE 28 37 15 20 1013.1 - 0.0
08/10:30am 29.0 27.8 18.4 52 6.9 SE 22 32 12 17 1013.2 - 0.0
08/10:00am 27.5 26.5 18.8 59 5.7 SE 22 30 12 16 1013.0 - 0.0
08/09:30am 26.9 26.7 18.5 60 5.5 SE 17 26 9 14 1013.2 - 0.0
08/09:00am 26.2 26.8 18.6 63 4.9 SSE 13 19 7 10 1013.3 1010.1 2.0
08/08:30am 25.7 26.1 18.9 66 4.4 SSE 15 20 8 11 1013.2 - 2.0
08/08:00am 25.2 24.5 19.6 71 3.7 SSE 22 28 12 15 1012.9 - 2.0
08/07:30am 24.0 24.8 20.7 82 2.2 SE 17 22 9 12 1012.8 - 2.0
08/07:00am 22.6 23.7 20.5 88 1.4 SSE 15 22 8 12 1012.6 - 2.0
08/06:30am 22.3 24.5 20.4 89 1.3 S 9 11 5 6 1012.1 - 2.0
08/06:00am 22.4 23.4 20.3 88 1.4 S 15 20 8 11 1011.6 1008.4 1.8
08/05:30am 22.2 23.8 20.7 91 1.0 SSE 13 15 7 8 1011.1 - 1.8
08/05:00am 21.8 24.6 20.8 94 0.7 SSE 7 11 4 6 1010.8 - 1.6
08/04:30am 21.6 23.9 20.6 94 0.7 SW 9 11 5 6 1010.8 - 1.6
08/04:00am 21.9 24.1 20.4 91 1.0 W 9 11 5 6 1010.9 - 1.6
08/03:30am 22.4 24.5 20.1 87 1.5 NE 9 13 5 7 1010.6 - 1.6
08/03:00am 22.6 24.4 19.6 83 2.0 SE 9 11 5 6 1009.8 1006.5 1.6
08/02:30am 22.4 23.2 19.9 86 1.6 S 15 20 8 11 1009.6 - 1.6
08/02:00am 22.4 24.5 20.1 87 1.5 SE 9 13 5 7 1010.9 - 1.6
08/01:30am 22.5 22.8 19.5 83 1.9 E 17 22 9 12 1011.4 - 1.6
08/01:00am 22.6 23.5 20.9 90 1.1 ENE 17 22 9 12 1012.3 - 1.6
08/12:30am 22.6 24.7 20.9 90 1.1 NE 11 13 6 7 1012.7 - 1.6
08/12:00am 22.8 25.6 20.5 87 1.5 NNW 6 7 3 4 1013.2 1010.0 1.4
 
Date/Time
CST
Temp
°C
App
Temp
°C
Dew
Point
°C
Rel
Hum
%
Delta-T
°C
Wind Press
QNH
hPa
Press
MSL
hPa
Rain since
9am
mm
Dir  Spd
km/h
Gust
km/h
Spd
kts
Gust
kts
07/11:30pm 22.7 25.6 20.6 88 1.4 W 6 11 3 6 1013.6 - 1.2
07/11:00pm 22.6 24.8 20.5 88 1.4 SW 9 11 5 6 1013.8 - 1.0
07/10:30pm 22.7 23.5 19.1 80 2.3 SSW 13 15 7 8 1013.9 - 0.8
07/10:00pm 23.1 24.0 18.4 75 3.0 SSW 11 13 6 7 1013.9 - 0.6
07/09:30pm 23.4 23.8 18.9 76 2.9 SSW 15 20 8 11 1013.2 - 0.4
07/09:00pm 25.2 25.4 17.7 63 4.8 WSW 13 17 7 9 1013.2 1010.0 0.2
07/08:30pm 25.6 25.4 18.5 65 4.6 SSE 17 20 9 11 1012.4 - 0.2
07/08:00pm 26.6 25.6 16.5 54 6.4 SSW 17 26 9 14 1012.5 - 0.2
07/07:30pm 26.3 26.0 18.2 61 5.2 S 17 22 9 12 1012.3 - 0.2
07/07:00pm 27.1 28.4 18.4 59 5.6 SE 9 15 5 8 1011.7 - 0.2
07/06:30pm 27.6 28.6 17.7 54 6.4 SSE 9 13 5 7 1011.6 - 0.2

Other Formats:

Comma delimited format used in spreadsheet applications
http://www.bom.gov.au/fwo/IDD60801/IDD60801.94321.axf

JavaScript Object Notation format (JSON) in row-major order
http://www.bom.gov.au/fwo/IDD60801/IDD60801.94321.json